Time;durP1;ratioP1;P1;durP2;ratioP2;P2;SDS_P1;SDS_P2;PMS_P1;PMS_P2;Temp;Humidity;BMP_temperature;BMP_pressure;BME280_temperature;BME280_humidity;BME280_pressure;Samples;Min_cycle;Max_cycle;Signal;HPM_P1;HPM_P2
2022/07/29 00:00:44;;;;;;;10.57;6.90;;;;;;;;;;773387;178;920014;-58
2022/07/29 00:03:07;;;;;;;13.70;7.28;;;;;;;;;;782368;180;816908;-59
2022/07/29 00:05:33;;;;;;;14.40;7.97;;;;;;;;;;775841;180;871081;-58
2022/07/29 00:07:59;;;;;;;8.35;6.85;;;;;;;;;;774941;180;918964;-59
2022/07/29 00:10:25;;;;;;;10.30;7.47;;;;;;;;;;781489;177;916032;-58
2022/07/29 00:12:50;;;;;;;14.03;8.30;;;;;;;;;;762584;181;920602;-58
2022/07/29 00:15:16;;;;;;;9.47;7.17;;;;;;;;;;761635;181;918238;-58
2022/07/29 00:17:42;;;;;;;10.80;7.17;;;;;;;;;;777018;180;847041;-58
2022/07/29 00:20:09;;;;;;;16.47;7.53;;;;;;;;;;775059;180;882857;-59
2022/07/29 00:22:35;;;;;;;13.93;7.60;;;;;;;;;;778168;177;908833;-58
2022/07/29 00:25:00;;;;;;;9.98;7.93;;;;;;;;;;775955;179;924790;-58
2022/07/29 00:27:26;;;;;;;8.60;7.70;;;;;;;;;;772866;179;857763;-59
2022/07/29 00:29:52;;;;;;;11.23;8.07;;;;;;;;;;772501;180;917632;-58
2022/07/29 00:32:18;;;;;;;11.47;8.00;;;;;;;;;;762756;180;918842;-57
2022/07/29 00:37:16;;;;;;;13.93;7.95;;;;;;;;;;774122;179;919059;-58
2022/07/29 00:39:42;;;;;;;12.83;9.20;;;;;;;;;;766895;180;919980;-59
2022/07/29 00:42:08;;;;;;;11.23;9.07;;;;;;;;;;772850;178;919307;-58
2022/07/29 00:44:36;;;;;;;13.73;8.90;;;;;;;;;;772109;179;887895;-59
2022/07/29 00:47:02;;;;;;;12.80;9.10;;;;;;;;;;773223;179;920794;-57
2022/07/29 00:49:28;;;;;;;15.90;9.25;;;;;;;;;;775726;181;907422;-58
2022/07/29 00:51:54;;;;;;;12.07;8.83;;;;;;;;;;780712;177;821716;-57
2022/07/29 00:54:20;;;;;;;11.83;9.07;;;;;;;;;;774425;177;918842;-58
2022/07/29 00:56:46;;;;;;;15.53;7.53;;;;;;;;;;773582;180;846683;-58
2022/07/29 00:59:12;;;;;;;14.23;9.20;;;;;;;;;;777894;181;922891;-58
2022/07/29 01:01:38;;;;;;;18.90;8.87;;;;;;;;;;767755;180;908542;-57
2022/07/29 01:04:04;;;;;;;15.60;8.40;;;;;;;;;;772670;178;918808;-58
2022/07/29 01:06:29;;;;;;;13.10;8.53;;;;;;;;;;773131;180;918890;-58
2022/07/29 01:08:55;;;;;;;14.00;8.90;;;;;;;;;;778794;180;814852;-56
2022/07/29 01:11:21;;;;;;;14.02;9.50;;;;;;;;;;768936;180;915257;-57
2022/07/29 01:13:47;;;;;;;13.70;9.67;;;;;;;;;;770498;180;850526;-57
2022/07/29 01:16:13;;;;;;;12.23;10.00;;;;;;;;;;776760;177;918717;-57
2022/07/29 01:18:39;;;;;;;10.53;8.10;;;;;;;;;;773046;180;928932;-57
2022/07/29 01:21:10;;;;;;;11.93;9.47;;;;;;;;;;774412;177;916979;-57
2022/07/29 01:23:51;;;;;;;11.97;8.10;;;;;;;;;;770990;178;917287;-57
2022/07/29 01:26:36;;;;;;;12.47;9.20;;;;;;;;;;758796;180;918221;-58
2022/07/29 01:29:03;;;;;;;12.33;9.60;;;;;;;;;;768834;180;922426;-58
2022/07/29 01:31:33;;;;;;;11.60;9.77;;;;;;;;;;776149;180;891085;-58
2022/07/29 01:33:59;;;;;;;17.87;10.17;;;;;;;;;;773722;181;915391;-58
2022/07/29 01:36:41;;;;;;;13.83;11.27;;;;;;;;;;775979;177;923797;-58
2022/07/29 01:39:07;;;;;;;18.43;9.83;;;;;;;;;;773701;178;918794;-59
2022/07/29 01:41:34;;;;;;;15.73;10.30;;;;;;;;;;780238;178;819696;-58
2022/07/29 01:44:00;;;;;;;19.23;11.83;;;;;;;;;;775540;181;919035;-57
2022/07/29 01:46:26;;;;;;;12.60;9.43;;;;;;;;;;779131;177;918985;-58
2022/07/29 01:48:54;;;;;;;20.37;11.73;;;;;;;;;;776608;177;915195;-58
2022/07/29 01:51:21;;;;;;;14.53;10.43;;;;;;;;;;777622;178;916054;-59
2022/07/29 01:54:05;;;;;;;15.33;10.40;;;;;;;;;;773338;180;910635;-58
2022/07/29 01:56:32;;;;;;;17.30;11.63;;;;;;;;;;765826;177;915037;-59
2022/07/29 01:58:56;;;;;;;13.13;10.33;;;;;;;;;;774551;180;915071;-58
2022/07/29 02:01:22;;;;;;;15.90;11.77;;;;;;;;;;777943;180;914972;-58
2022/07/29 02:03:47;;;;;;;13.90;10.90;;;;;;;;;;767400;180;920487;-58
2022/07/29 02:06:13;;;;;;;15.90;10.88;;;;;;;;;;775709;178;1023751;-58
2022/07/29 02:08:40;;;;;;;16.55;12.00;;;;;;;;;;773175;179;915772;-58
2022/07/29 02:11:05;;;;;;;25.00;10.87;;;;;;;;;;773206;180;1862883;-58
2022/07/29 02:13:31;;;;;;;17.10;10.70;;;;;;;;;;773785;181;906453;-58
2022/07/29 02:15:57;;;;;;;19.17;11.13;;;;;;;;;;762322;180;921853;-57
2022/07/29 02:18:23;;;;;;;15.70;11.70;;;;;;;;;;775219;179;918641;-58
2022/07/29 02:20:49;;;;;;;14.13;10.50;;;;;;;;;;774566;181;918589;-57
2022/07/29 02:23:15;;;;;;;16.23;12.07;;;;;;;;;;774546;181;919039;-58
2022/07/29 02:25:41;;;;;;;22.00;11.80;;;;;;;;;;775820;181;917859;-63
2022/07/29 02:28:07;;;;;;;17.50;11.48;;;;;;;;;;773735;179;918663;-58
2022/07/29 02:30:32;;;;;;;20.27;12.07;;;;;;;;;;769397;181;888287;-57
2022/07/29 02:32:58;;;;;;;16.90;12.17;;;;;;;;;;776685;180;918991;-57
2022/07/29 02:35:24;;;;;;;26.40;13.90;;;;;;;;;;766864;181;919509;-58
2022/07/29 02:38:49;;;;;;;18.83;12.50;;;;;;;;;;771561;181;918998;-57
2022/07/29 02:40:16;;;;;;;22.60;12.17;;;;;;;;;;771286;179;918980;-57
2022/07/29 02:42:42;;;;;;;15.80;12.77;;;;;;;;;;768528;179;918888;-58
2022/07/29 02:45:08;;;;;;;17.30;12.17;;;;;;;;;;765627;180;918753;-58
2022/07/29 02:47:35;;;;;;;14.63;12.03;;;;;;;;;;773665;177;919855;-58
2022/07/29 02:50:01;;;;;;;18.57;13.87;;;;;;;;;;778631;178;919290;-58
2022/07/29 02:52:27;;;;;;;29.73;13.30;;;;;;;;;;776248;177;816180;-57
2022/07/29 02:54:54;;;;;;;18.57;12.10;;;;;;;;;;776136;179;919335;-58
2022/07/29 02:57:21;;;;;;;16.87;12.10;;;;;;;;;;782046;177;918886;-58
2022/07/29 02:59:47;;;;;;;18.73;12.43;;;;;;;;;;781972;177;921927;-58
2022/07/29 03:02:12;;;;;;;18.10;13.37;;;;;;;;;;776827;180;936279;-57
2022/07/29 03:04:38;;;;;;;16.20;12.77;;;;;;;;;;770764;180;915946;-58
2022/07/29 03:07:04;;;;;;;18.73;12.67;;;;;;;;;;775939;180;916070;-58
2022/07/29 03:09:30;;;;;;;14.50;11.87;;;;;;;;;;773073;180;923663;-58
2022/07/29 03:11:56;;;;;;;16.07;13.30;;;;;;;;;;769680;178;922059;-58
2022/07/29 03:14:22;;;;;;;13.60;11.77;;;;;;;;;;778620;179;920143;-61
2022/07/29 03:16:47;;;;;;;20.57;12.07;;;;;;;;;;765455;180;919944;-57
2022/07/29 03:19:13;;;;;;;15.20;11.77;;;;;;;;;;777608;180;913374;-58
2022/07/29 03:21:39;;;;;;;20.63;12.90;;;;;;;;;;778698;177;920291;-58
2022/07/29 03:24:05;;;;;;;17.93;13.47;;;;;;;;;;776534;177;902871;-58
2022/07/29 03:26:31;;;;;;;22.83;13.87;;;;;;;;;;772899;177;921862;-58
2022/07/29 03:28:57;;;;;;;16.03;12.57;;;;;;;;;;773572;180;918593;-57
2022/07/29 03:31:23;;;;;;;19.20;13.53;;;;;;;;;;775888;181;918820;-58
2022/07/29 03:33:49;;;;;;;14.77;12.50;;;;;;;;;;772085;178;852553;-59
2022/07/29 03:36:15;;;;;;;19.17;12.87;;;;;;;;;;750601;181;921333;-63
2022/07/29 03:38:40;;;;;;;13.93;12.03;;;;;;;;;;774510;180;919318;-58
2022/07/29 03:41:06;;;;;;;16.60;12.23;;;;;;;;;;774927;180;914694;-57
2022/07/29 03:43:33;;;;;;;13.60;10.40;;;;;;;;;;768166;180;918989;-58
2022/07/29 03:45:58;;;;;;;14.97;12.83;;;;;;;;;;767697;180;918036;-58
2022/07/29 03:48:24;;;;;;;14.20;10.83;;;;;;;;;;773415;181;919478;-58
2022/07/29 03:50:50;;;;;;;14.23;11.70;;;;;;;;;;776059;177;918581;-57
2022/07/29 03:53:15;;;;;;;15.13;11.50;;;;;;;;;;770146;180;825713;-58
2022/07/29 03:55:42;;;;;;;13.83;11.10;;;;;;;;;;772137;180;919561;-58
2022/07/29 03:58:07;;;;;;;16.45;11.90;;;;;;;;;;774269;180;920380;-58
2022/07/29 04:00:33;;;;;;;17.40;11.63;;;;;;;;;;776110;179;819785;-58
2022/07/29 04:02:59;;;;;;;15.17;11.27;;;;;;;;;;776741;177;915042;-57
2022/07/29 04:05:25;;;;;;;21.13;12.53;;;;;;;;;;756967;184;919036;-59
2022/07/29 04:07:51;;;;;;;17.23;11.60;;;;;;;;;;762344;180;920273;-58
2022/07/29 04:10:16;;;;;;;14.53;11.17;;;;;;;;;;771329;180;922138;-58
2022/07/29 04:12:42;;;;;;;17.70;11.47;;;;;;;;;;770860;178;917901;-57
2022/07/29 04:15:08;;;;;;;11.30;10.03;;;;;;;;;;758106;184;921296;-58
2022/07/29 04:17:35;;;;;;;12.05;10.55;;;;;;;;;;763582;181;941053;-58
2022/07/29 04:20:01;;;;;;;13.67;11.27;;;;;;;;;;764861;182;916813;-58
2022/07/29 04:22:27;;;;;;;20.63;10.10;;;;;;;;;;767879;181;919293;-57
2022/07/29 04:24:53;;;;;;;14.53;10.43;;;;;;;;;;768272;179;910873;-59
2022/07/29 04:27:18;;;;;;;14.63;11.40;;;;;;;;;;776501;180;918663;-58
2022/07/29 04:29:44;;;;;;;13.07;10.33;;;;;;;;;;771296;178;942456;-58
2022/07/29 04:32:10;;;;;;;16.63;10.10;;;;;;;;;;771776;180;918921;-58
2022/07/29 04:34:36;;;;;;;17.67;11.50;;;;;;;;;;773920;180;919205;-58
2022/07/29 04:37:02;;;;;;;29.13;13.97;;;;;;;;;;771294;180;919652;-58
2022/07/29 04:39:28;;;;;;;15.10;11.10;;;;;;;;;;773497;180;919618;-58
2022/07/29 04:41:54;;;;;;;12.53;10.83;;;;;;;;;;762724;180;820825;-57
2022/07/29 04:44:19;;;;;;;15.87;11.43;;;;;;;;;;762747;180;917404;-58
2022/07/29 04:46:45;;;;;;;18.57;11.50;;;;;;;;;;772742;180;918861;-58
2022/07/29 04:49:11;;;;;;;15.25;11.48;;;;;;;;;;771237;177;920220;-59
2022/07/29 04:51:37;;;;;;;16.97;12.50;;;;;;;;;;766789;181;916097;-59
2022/07/29 04:54:03;;;;;;;16.10;10.80;;;;;;;;;;770392;180;919014;-58
2022/07/29 04:56:29;;;;;;;17.20;11.63;;;;;;;;;;773377;179;918397;-58
2022/07/29 04:58:55;;;;;;;32.60;12.07;;;;;;;;;;762366;182;819186;-58
2022/07/29 05:01:20;;;;;;;20.17;11.75;;;;;;;;;;772873;180;918762;-58
2022/07/29 05:03:46;;;;;;;13.10;10.57;;;;;;;;;;767559;179;917846;-58
2022/07/29 05:06:12;;;;;;;14.87;9.80;;;;;;;;;;770222;180;919807;-57
2022/07/29 05:08:38;;;;;;;19.50;13.17;;;;;;;;;;774907;180;920519;-58
2022/07/29 05:11:04;;;;;;;12.65;10.57;;;;;;;;;;768549;180;917054;-57
2022/07/29 05:13:30;;;;;;;14.30;10.37;;;;;;;;;;772831;180;918495;-57
2022/07/29 05:15:58;;;;;;;18.27;10.83;;;;;;;;;;768622;181;934597;-58
2022/07/29 05:18:22;;;;;;;14.37;10.10;;;;;;;;;;773418;180;862510;-58
2022/07/29 05:20:48;;;;;;;17.70;10.63;;;;;;;;;;771226;180;938722;-58
2022/07/29 05:23:14;;;;;;;14.33;9.80;;;;;;;;;;779405;180;810571;-58
2022/07/29 05:25:40;;;;;;;15.43;11.10;;;;;;;;;;774422;178;816827;-58
2022/07/29 05:28:05;;;;;;;14.87;10.93;;;;;;;;;;774872;178;872846;-58
2022/07/29 05:30:31;;;;;;;15.17;11.00;;;;;;;;;;777868;180;918981;-58
2022/07/29 05:32:57;;;;;;;15.40;9.90;;;;;;;;;;770934;180;816448;-57
2022/07/29 05:35:23;;;;;;;17.23;10.27;;;;;;;;;;772524;177;914055;-58
2022/07/29 05:37:49;;;;;;;17.27;10.93;;;;;;;;;;770672;180;921314;-58
2022/07/29 05:40:15;;;;;;;11.73;9.63;;;;;;;;;;770923;180;783519;-57
2022/07/29 05:42:40;;;;;;;13.47;9.80;;;;;;;;;;761904;181;918960;-58
2022/07/29 05:45:06;;;;;;;14.37;8.87;;;;;;;;;;768959;180;939970;-58
2022/07/29 05:47:32;;;;;;;11.40;9.40;;;;;;;;;;778870;180;918952;-58
2022/07/29 05:49:58;;;;;;;16.23;10.47;;;;;;;;;;773156;180;924109;-57
2022/07/29 05:52:24;;;;;;;20.47;10.20;;;;;;;;;;772474;181;885756;-58
2022/07/29 05:54:50;;;;;;;13.23;9.50;;;;;;;;;;778093;178;713558;-58
2022/07/29 05:57:17;;;;;;;15.57;10.90;;;;;;;;;;772879;180;914088;-60
2022/07/29 05:59:42;;;;;;;16.50;10.30;;;;;;;;;;771703;179;886649;-59
2022/07/29 06:02:08;;;;;;;14.33;11.10;;;;;;;;;;775601;180;735160;-59
2022/07/29 06:04:34;;;;;;;15.43;9.60;;;;;;;;;;771021;180;916466;-61
2022/07/29 06:07:01;;;;;;;17.07;10.07;;;;;;;;;;770367;177;904622;-59
2022/07/29 06:09:26;;;;;;;14.70;9.60;;;;;;;;;;764975;179;920474;-60
2022/07/29 06:11:52;;;;;;;18.67;9.83;;;;;;;;;;765351;181;814296;-60
2022/07/29 06:14:18;;;;;;;15.37;12.77;;;;;;;;;;772463;177;814864;-57
2022/07/29 06:16:43;;;;;;;20.20;10.50;;;;;;;;;;771714;180;850839;-59
2022/07/29 06:19:09;;;;;;;17.90;10.30;;;;;;;;;;779059;179;919105;-59
2022/07/29 06:21:35;;;;;;;12.60;10.80;;;;;;;;;;774034;177;917778;-60
2022/07/29 06:24:01;;;;;;;23.80;11.20;;;;;;;;;;773392;180;918738;-58
2022/07/29 06:26:28;;;;;;;14.37;10.80;;;;;;;;;;777018;180;814769;-60
2022/07/29 06:28:54;;;;;;;16.43;10.50;;;;;;;;;;773406;177;766982;-58
2022/07/29 06:31:20;;;;;;;14.63;10.40;;;;;;;;;;772057;179;918162;-57
2022/07/29 06:33:46;;;;;;;17.77;11.38;;;;;;;;;;773447;177;919310;-59
2022/07/29 06:36:12;;;;;;;23.00;10.80;;;;;;;;;;778171;180;925736;-57
2022/07/29 06:38:38;;;;;;;20.43;11.40;;;;;;;;;;775459;180;879583;-59
2022/07/29 06:41:05;;;;;;;15.47;10.90;;;;;;;;;;776055;180;818017;-58
2022/07/29 06:43:31;;;;;;;14.63;10.70;;;;;;;;;;781619;180;626825;-58
2022/07/29 06:45:56;;;;;;;18.40;11.30;;;;;;;;;;776532;177;628576;-58
2022/07/29 06:48:21;;;;;;;15.00;9.90;;;;;;;;;;769692;180;623411;-58
2022/07/29 06:50:47;;;;;;;18.10;10.53;;;;;;;;;;776583;181;818716;-58
2022/07/29 06:53:13;;;;;;;17.33;10.30;;;;;;;;;;775464;179;818602;-58
2022/07/29 06:55:39;;;;;;;18.57;9.83;;;;;;;;;;776899;177;716897;-58
2022/07/29 06:58:05;;;;;;;12.13;8.50;;;;;;;;;;772686;179;873930;-59
2022/07/29 07:00:30;;;;;;;15.97;9.27;;;;;;;;;;769640;181;895766;-61
2022/07/29 07:02:56;;;;;;;15.50;9.00;;;;;;;;;;768198;180;920646;-60
2022/07/29 07:05:22;;;;;;;12.50;9.60;;;;;;;;;;755092;184;821448;-60
2022/07/29 07:07:48;;;;;;;11.60;9.30;;;;;;;;;;774035;180;918733;-58
2022/07/29 07:10:14;;;;;;;13.37;9.60;;;;;;;;;;771253;179;934151;-59
2022/07/29 07:12:40;;;;;;;11.43;7.90;;;;;;;;;;765142;181;920842;-58
2022/07/29 07:15:06;;;;;;;25.30;9.27;;;;;;;;;;770219;180;614016;-59
2022/07/29 07:17:32;;;;;;;10.20;8.27;;;;;;;;;;777318;178;707618;-59
2022/07/29 07:19:58;;;;;;;12.97;9.10;;;;;;;;;;771428;177;618498;-58
2022/07/29 07:22:23;;;;;;;14.27;9.10;;;;;;;;;;779295;180;640524;-59
2022/07/29 07:24:50;;;;;;;11.43;8.70;;;;;;;;;;777519;180;619233;-58
2022/07/29 07:27:15;;;;;;;12.30;9.30;;;;;;;;;;772776;177;633074;-60
2022/07/29 07:29:41;;;;;;;15.40;9.43;;;;;;;;;;770385;180;615827;-59
2022/07/29 07:32:07;;;;;;;10.17;7.80;;;;;;;;;;782693;180;629207;-59
2022/07/29 07:34:33;;;;;;;13.57;8.93;;;;;;;;;;773446;181;627909;-59
2022/07/29 07:36:59;;;;;;;13.13;8.10;;;;;;;;;;776647;181;631481;-58
2022/07/29 07:39:25;;;;;;;15.40;8.50;;;;;;;;;;784813;179;612198;-58
2022/07/29 07:41:50;;;;;;;13.17;8.47;;;;;;;;;;781078;180;629044;-57
2022/07/29 07:44:16;;;;;;;12.00;8.20;;;;;;;;;;780334;177;634996;-60
2022/07/29 07:46:42;;;;;;;16.33;7.50;;;;;;;;;;778413;178;643600;-59
2022/07/29 07:49:08;;;;;;;8.90;7.63;;;;;;;;;;768488;181;618176;-59
2022/07/29 07:51:34;;;;;;;13.70;8.00;;;;;;;;;;775071;177;618404;-58
2022/07/29 07:54:00;;;;;;;13.00;7.90;;;;;;;;;;778918;177;626912;-57
2022/07/29 07:56:26;;;;;;;8.37;7.17;;;;;;;;;;783435;180;644946;-59
2022/07/29 07:58:51;;;;;;;10.10;6.83;;;;;;;;;;779916;178;616945;-57
2022/07/29 08:01:19;;;;;;;11.80;7.50;;;;;;;;;;778986;181;629174;-59
2022/07/29 08:03:43;;;;;;;9.20;7.23;;;;;;;;;;782556;181;624871;-59
2022/07/29 08:06:09;;;;;;;13.43;7.17;;;;;;;;;;772068;179;623734;-57
2022/07/29 08:08:35;;;;;;;13.50;7.90;;;;;;;;;;775945;180;621218;-59
2022/07/29 08:11:01;;;;;;;9.70;7.40;;;;;;;;;;780991;180;624095;-59
2022/07/29 08:13:28;;;;;;;16.50;8.13;;;;;;;;;;772971;180;628726;-60
2022/07/29 08:15:57;;;;;;;10.93;6.93;;;;;;;;;;777636;181;627173;-58
2022/07/29 08:18:23;;;;;;;11.20;7.40;;;;;;;;;;778650;178;635459;-58
2022/07/29 08:20:49;;;;;;;9.07;7.20;;;;;;;;;;778702;180;617127;-57
2022/07/29 08:23:15;;;;;;;17.10;9.20;;;;;;;;;;777849;180;614921;-58
2022/07/29 08:25:41;;;;;;;15.40;8.50;;;;;;;;;;772893;180;643482;-59
2022/07/29 08:28:06;;;;;;;14.70;7.97;;;;;;;;;;782092;181;624196;-57
2022/07/29 08:30:32;;;;;;;12.43;8.33;;;;;;;;;;776054;180;629030;-59
2022/07/29 08:32:58;;;;;;;13.63;8.80;;;;;;;;;;777934;180;629006;-57
2022/07/29 08:35:24;;;;;;;16.20;9.00;;;;;;;;;;777415;180;647323;-59
2022/07/29 08:37:50;;;;;;;11.03;8.13;;;;;;;;;;770780;180;629016;-57
2022/07/29 08:40:15;;;;;;;9.20;8.20;;;;;;;;;;770214;179;623331;-58
2022/07/29 08:42:41;;;;;;;13.73;8.40;;;;;;;;;;781162;180;626333;-58
2022/07/29 08:45:08;;;;;;;14.13;8.87;;;;;;;;;;782793;178;625825;-57
2022/07/29 08:47:36;;;;;;;11.23;7.60;;;;;;;;;;776538;181;624786;-57
2022/07/29 08:49:59;;;;;;;14.17;8.13;;;;;;;;;;777768;178;630992;-57
2022/07/29 08:52:25;;;;;;;20.43;9.93;;;;;;;;;;780044;180;623383;-59
2022/07/29 08:54:51;;;;;;;14.17;8.13;;;;;;;;;;779624;180;631429;-58
2022/07/29 08:57:17;;;;;;;13.27;8.37;;;;;;;;;;764619;181;637329;-57
2022/07/29 08:59:43;;;;;;;13.33;7.97;;;;;;;;;;777144;181;638950;-59
2022/07/29 09:02:08;;;;;;;12.37;8.07;;;;;;;;;;775915;177;621633;-58
2022/07/29 09:04:35;;;;;;;12.00;7.63;;;;;;;;;;776545;180;627691;-57
2022/07/29 09:07:00;;;;;;;14.40;7.40;;;;;;;;;;774953;180;628963;-59
2022/07/29 09:09:26;;;;;;;19.10;7.33;;;;;;;;;;782251;180;639027;-61
2022/07/29 09:11:53;;;;;;;8.23;7.10;;;;;;;;;;777371;180;626852;-58
2022/07/29 09:14:18;;;;;;;8.77;6.63;;;;;;;;;;777641;180;638968;-58
2022/07/29 09:16:46;;;;;;;13.77;7.87;;;;;;;;;;778839;180;617389;-59
2022/07/29 09:19:17;;;;;;;10.67;7.20;;;;;;;;;;777692;181;640101;-57
2022/07/29 09:24:15;;;;;;;7.63;6.23;;;;;;;;;;778008;180;645808;-57
2022/07/29 09:26:41;;;;;;;11.43;7.90;;;;;;;;;;780243;179;638495;-59
2022/07/29 09:29:07;;;;;;;8.20;6.50;;;;;;;;;;772340;181;643925;-59
2022/07/29 09:31:34;;;;;;;10.90;6.60;;;;;;;;;;769056;182;626361;-58
2022/07/29 09:34:00;;;;;;;12.30;8.10;;;;;;;;;;778920;179;628410;-58
2022/07/29 09:36:25;;;;;;;9.33;7.90;;;;;;;;;;773763;179;656884;-56
2022/07/29 09:38:56;;;;;;;12.40;8.13;;;;;;;;;;780199;177;641087;-57
2022/07/29 09:41:22;;;;;;;17.10;7.27;;;;;;;;;;777417;177;638064;-58
2022/07/29 09:43:53;;;;;;;11.20;7.80;;;;;;;;;;782743;180;629703;-57
2022/07/29 09:46:19;;;;;;;10.37;6.87;;;;;;;;;;779153;180;655633;-57
2022/07/29 09:48:45;;;;;;;12.57;8.23;;;;;;;;;;778165;180;628043;-56
2022/07/29 09:51:17;;;;;;;10.53;7.63;;;;;;;;;;777810;180;636062;-59
2022/07/29 09:53:43;;;;;;;10.70;6.33;;;;;;;;;;782065;179;918581;-57
2022/07/29 09:56:10;;;;;;;12.17;7.27;;;;;;;;;;776338;177;914168;-54
2022/07/29 09:58:35;;;;;;;8.87;6.93;;;;;;;;;;775369;177;812852;-56
2022/07/29 10:01:01;;;;;;;9.70;6.27;;;;;;;;;;779741;181;626886;-57
2022/07/29 10:03:26;;;;;;;11.60;6.77;;;;;;;;;;776598;178;627952;-58
2022/07/29 10:05:58;;;;;;;9.73;7.70;;;;;;;;;;774567;180;635156;-55
2022/07/29 10:08:25;;;;;;;14.07;6.97;;;;;;;;;;779134;180;635032;-57
2022/07/29 10:10:51;;;;;;;7.23;6.33;;;;;;;;;;779464;180;916198;-58
2022/07/29 10:13:16;;;;;;;7.37;6.43;;;;;;;;;;776569;180;645734;-57
2022/07/29 10:15:44;;;;;;;8.40;7.50;;;;;;;;;;776233;180;614201;-57
2022/07/29 10:18:08;;;;;;;23.83;9.77;;;;;;;;;;781764;181;613136;-56
2022/07/29 10:20:34;;;;;;;10.20;6.63;;;;;;;;;;777413;181;626744;-57
2022/07/29 10:23:00;;;;;;;13.00;6.50;;;;;;;;;;774979;179;629169;-57
2022/07/29 10:25:26;;;;;;;9.17;7.63;;;;;;;;;;764021;179;630882;-56
2022/07/29 10:27:52;;;;;;;7.50;6.07;;;;;;;;;;781824;180;618784;-57
2022/07/29 10:30:17;;;;;;;14.27;6.27;;;;;;;;;;777830;180;636915;-56
2022/07/29 10:32:54;;;;;;;8.63;6.80;;;;;;;;;;778737;178;624813;-56
2022/07/29 10:35:36;;;;;;;8.17;6.80;;;;;;;;;;777746;180;628522;-57
2022/07/29 10:38:21;;;;;;;12.47;7.73;;;;;;;;;;766505;181;637919;-57
2022/07/29 10:43:27;;;;;;;7.90;5.90;;;;;;;;;;777968;181;646975;-57
2022/07/29 10:45:55;;;;;;;9.80;6.77;;;;;;;;;;772918;181;633920;-56
2022/07/29 10:48:21;;;;;;;11.27;6.90;;;;;;;;;;777475;180;622493;-58
2022/07/29 10:50:52;;;;;;;8.97;5.83;;;;;;;;;;778683;180;623166;-58
2022/07/29 10:53:18;;;;;;;11.40;6.63;;;;;;;;;;777200;181;636375;-58
2022/07/29 10:55:46;;;;;;;9.73;6.60;;;;;;;;;;772888;180;622012;-57
2022/07/29 10:58:10;;;;;;;8.23;5.63;;;;;;;;;;770482;180;636748;-57
2022/07/29 11:00:36;;;;;;;7.67;5.60;;;;;;;;;;775511;180;638723;-56
2022/07/29 11:03:02;;;;;;;10.23;7.00;;;;;;;;;;781180;180;618826;-56
2022/07/29 11:05:31;;;;;;;13.33;6.63;;;;;;;;;;778638;177;629985;-60
2022/07/29 11:07:59;;;;;;;7.73;6.20;;;;;;;;;;778307;180;631477;-57
2022/07/29 11:10:25;;;;;;;8.83;6.47;;;;;;;;;;781675;181;631946;-57
2022/07/29 11:12:51;;;;;;;13.47;6.70;;;;;;;;;;771875;180;915260;-57
2022/07/29 11:15:18;;;;;;;11.00;6.43;;;;;;;;;;772691;180;857792;-58
2022/07/29 11:17:50;;;;;;;11.13;6.03;;;;;;;;;;778081;180;629897;-57
2022/07/29 11:20:22;;;;;;;8.60;6.00;;;;;;;;;;780166;180;665105;-57
2022/07/29 11:22:48;;;;;;;10.90;6.33;;;;;;;;;;772125;181;625723;-56
2022/07/29 11:25:14;;;;;;;11.47;6.93;;;;;;;;;;777080;180;629005;-58
2022/07/29 11:27:40;;;;;;;9.37;7.13;;;;;;;;;;778437;180;644915;-57
2022/07/29 11:30:07;;;;;;;9.73;6.50;;;;;;;;;;782076;180;635705;-58
2022/07/29 11:32:36;;;;;;;10.30;5.77;;;;;;;;;;778263;178;625228;-58
2022/07/29 11:35:08;;;;;;;8.60;6.13;;;;;;;;;;777232;180;628446;-58
2022/07/29 11:37:34;;;;;;;9.00;6.00;;;;;;;;;;767813;181;634251;-58
2022/07/29 11:40:11;;;;;;;13.80;6.83;;;;;;;;;;779843;177;628228;-58
2022/07/29 11:42:37;;;;;;;9.20;6.33;;;;;;;;;;777684;179;620703;-57
2022/07/29 11:45:10;;;;;;;9.97;7.10;;;;;;;;;;773472;181;619028;-58
2022/07/29 11:47:36;;;;;;;8.77;7.13;;;;;;;;;;779406;180;617537;-57
2022/07/29 11:50:02;;;;;;;12.03;6.40;;;;;;;;;;781030;180;627629;-58
2022/07/29 11:52:33;;;;;;;87.97;20.23;;;;;;;;;;775649;179;632166;-59
2022/07/29 11:54:59;;;;;;;8.73;6.20;;;;;;;;;;776797;180;617769;-58
2022/07/29 11:57:25;;;;;;;12.80;6.10;;;;;;;;;;777003;177;728634;-58
2022/07/29 11:59:51;;;;;;;9.90;6.60;;;;;;;;;;782302;178;615114;-58
2022/07/29 12:02:17;;;;;;;14.07;6.17;;;;;;;;;;778408;178;629265;-58
2022/07/29 12:04:48;;;;;;;13.30;6.53;;;;;;;;;;778767;180;635209;-58
2022/07/29 12:07:14;;;;;;;8.97;6.53;;;;;;;;;;778363;178;626454;-58
2022/07/29 12:09:40;;;;;;;9.97;6.40;;;;;;;;;;771853;180;622068;-58
2022/07/29 12:12:06;;;;;;;9.87;6.37;;;;;;;;;;769098;180;726696;-58
2022/07/29 12:14:31;;;;;;;8.93;5.70;;;;;;;;;;778776;178;631520;-57
2022/07/29 12:16:57;;;;;;;10.07;5.27;;;;;;;;;;783356;179;630006;-58
2022/07/29 12:19:23;;;;;;;17.20;7.27;;;;;;;;;;782447;179;628275;-57
2022/07/29 12:21:49;;;;;;;11.97;6.10;;;;;;;;;;780049;177;628570;-58
2022/07/29 12:24:15;;;;;;;13.23;6.90;;;;;;;;;;771424;180;631979;-58
2022/07/29 12:26:47;;;;;;;13.23;6.43;;;;;;;;;;775299;180;627052;-58
2022/07/29 12:29:16;;;;;;;7.60;6.20;;;;;;;;;;772542;181;643899;-58
2022/07/29 12:31:41;;;;;;;12.83;6.90;;;;;;;;;;779051;180;627813;-58
2022/07/29 12:34:07;;;;;;;12.13;6.87;;;;;;;;;;780273;179;634899;-58
2022/07/29 12:36:33;;;;;;;9.87;6.47;;;;;;;;;;775912;181;627843;-58
2022/07/29 12:38:59;;;;;;;8.80;6.50;;;;;;;;;;776958;181;628192;-58
2022/07/29 12:41:24;;;;;;;9.83;6.57;;;;;;;;;;781572;179;624885;-58
2022/07/29 12:43:51;;;;;;;11.03;7.13;;;;;;;;;;780167;180;614938;-57
2022/07/29 12:46:17;;;;;;;18.97;7.27;;;;;;;;;;775485;178;630531;-59
2022/07/29 12:48:43;;;;;;;12.53;6.00;;;;;;;;;;780571;180;630103;-59
2022/07/29 12:51:09;;;;;;;7.50;5.90;;;;;;;;;;783021;180;623708;-57
2022/07/29 12:53:34;;;;;;;12.37;7.33;;;;;;;;;;774077;180;616046;-56
2022/07/29 12:56:01;;;;;;;18.03;7.20;;;;;;;;;;772006;180;634339;-56
2022/07/29 12:58:36;;;;;;;11.47;6.60;;;;;;;;;;779379;178;627473;31
2022/07/29 13:01:02;;;;;;;13.90;7.00;;;;;;;;;;758391;183;632862;-84
2022/07/29 13:03:27;;;;;;;16.10;10.53;;;;;;;;;;744720;187;844426;-87
2022/07/29 13:05:53;;;;;;;14.30;6.77;;;;;;;;;;748157;187;648067;-85
2022/07/29 13:08:19;;;;;;;21.23;8.20;;;;;;;;;;753417;187;652319;-87
2022/07/29 13:10:45;;;;;;;17.70;12.40;;;;;;;;;;746090;187;710390;-84
2022/07/29 13:13:11;;;;;;;23.10;17.30;;;;;;;;;;747455;187;633658;-86
2022/07/29 13:15:38;;;;;;;31.93;24.27;;;;;;;;;;751927;187;629606;-86
2022/07/29 13:18:04;;;;;;;13.33;8.00;;;;;;;;;;744954;187;692629;-86
2022/07/29 13:20:30;;;;;;;13.77;8.05;;;;;;;;;;747357;187;629945;-85
2022/07/29 13:22:56;;;;;;;21.27;11.20;;;;;;;;;;748700;186;807327;-83
2022/07/29 13:25:32;;;;;;;15.60;10.23;;;;;;;;;;752458;184;653005;-86
2022/07/29 13:27:57;;;;;;;23.47;14.30;;;;;;;;;;750067;186;633805;-84
2022/07/29 13:30:23;;;;;;;7.90;7.10;;;;;;;;;;747473;186;640952;-85
2022/07/29 13:32:49;;;;;;;13.80;7.30;;;;;;;;;;748177;187;625651;-85
2022/07/29 13:35:15;;;;;;;10.70;7.20;;;;;;;;;;745667;187;736870;-85
2022/07/29 13:37:41;;;;;;;8.30;6.80;;;;;;;;;;755568;187;632579;-83
2022/07/29 13:40:07;;;;;;;11.93;7.70;;;;;;;;;;764863;186;26536;-84
2022/07/29 13:42:33;;;;;;;11.17;7.30;;;;;;;;;;765420;186;26506;-85
2022/07/29 13:44:59;;;;;;;15.83;8.60;;;;;;;;;;764101;186;27578;-85
2022/07/29 13:47:24;;;;;;;10.47;8.07;;;;;;;;;;765601;186;26595;-84
2022/07/29 13:49:50;;;;;;;16.77;7.93;;;;;;;;;;767000;186;26521;-85
2022/07/29 13:52:16;;;;;;;11.37;8.47;;;;;;;;;;768776;186;27059;-86
2022/07/29 13:54:42;;;;;;;14.23;7.10;;;;;;;;;;763732;186;26516;-86
2022/07/29 13:57:08;;;;;;;12.43;10.57;;;;;;;;;;769222;183;26984;-82
2022/07/29 13:59:34;;;;;;;9.20;7.50;;;;;;;;;;763509;186;26608;-85
2022/07/29 14:02:00;;;;;;;8.83;6.50;;;;;;;;;;765290;186;26579;-82
2022/07/29 14:04:25;;;;;;;9.47;7.13;;;;;;;;;;765156;186;26527;-84
2022/07/29 14:06:51;;;;;;;12.37;7.30;;;;;;;;;;766962;186;26538;-83
2022/07/29 14:09:17;;;;;;;11.73;6.60;;;;;;;;;;766577;186;26929;-86
2022/07/29 14:11:43;;;;;;;7.43;6.63;;;;;;;;;;766683;186;26518;-87
2022/07/29 14:14:10;;;;;;;9.63;7.90;;;;;;;;;;766990;186;26940;-84
2022/07/29 14:16:35;;;;;;;13.53;6.83;;;;;;;;;;766911;186;27558;-86
2022/07/29 14:19:01;;;;;;;8.77;6.70;;;;;;;;;;768540;186;27554;-86